Time;durP1;ratioP1;P1;durP2;ratioP2;P2;SDS_P1;SDS_P2;PMS_P1;PMS_P2;Temp;Humidity;BMP_temperature;BMP_pressure;BME280_temperature;BME280_humidity;BME280_pressure;Samples;Min_cycle;Max_cycle;Signal;HPM_P1;HPM_P2
2023/12/06 00:01:53;;;;;;;136.98;57.63;;;;;;;;;;5029560;28;20273;-76
2023/12/06 00:04:19;;;;;;;135.68;56.20;;;;;;;;;;5011399;28;20033;-76
2023/12/06 00:06:46;;;;;;;123.40;56.92;;;;;;;;;;5028397;28;20037;-75
2023/12/06 00:09:12;;;;;;;126.88;55.45;;;;;;;;;;5027165;28;20037;-76
2023/12/06 00:11:38;;;;;;;129.77;57.55;;;;;;;;;;5010975;28;20028;-76
2023/12/06 00:14:04;;;;;;;127.28;58.30;;;;;;;;;;5011919;28;20052;-75
2023/12/06 00:16:30;;;;;;;128.57;58.03;;;;;;;;;;5011387;28;20030;-76
2023/12/06 00:18:56;;;;;;;127.65;56.45;;;;;;;;;;5009788;28;20022;-76
2023/12/06 00:21:22;;;;;;;130.55;57.40;;;;;;;;;;5028064;28;20396;-75
2023/12/06 00:23:49;;;;;;;129.80;57.38;;;;;;;;;;5010592;28;20061;-76
2023/12/06 00:26:15;;;;;;;124.65;57.25;;;;;;;;;;5028501;28;20033;-76
2023/12/06 00:28:41;;;;;;;124.32;56.92;;;;;;;;;;5027150;28;20080;-75
2023/12/06 00:31:09;;;;;;;131.05;56.55;;;;;;;;;;5028747;28;20132;-76
2023/12/06 00:33:35;;;;;;;125.82;57.15;;;;;;;;;;5029193;28;20033;-75
2023/12/06 00:36:03;;;;;;;125.03;56.00;;;;;;;;;;5027184;28;20032;-75
2023/12/06 00:38:32;;;;;;;124.97;54.90;;;;;;;;;;5028326;28;20038;-74
2023/12/06 00:41:00;;;;;;;120.40;55.17;;;;;;;;;;5028195;28;20125;-76
2023/12/06 00:43:26;;;;;;;115.80;54.13;;;;;;;;;;5029893;28;20051;-76
2023/12/06 00:45:53;;;;;;;111.80;51.88;;;;;;;;;;5028538;28;20038;-76
2023/12/06 00:48:20;;;;;;;115.90;53.08;;;;;;;;;;5026522;28;20100;-75
2023/12/06 00:50:48;;;;;;;113.13;53.80;;;;;;;;;;5027675;28;20037;-73
2023/12/06 00:53:14;;;;;;;116.70;53.55;;;;;;;;;;5028764;28;20098;-76
2023/12/06 00:55:41;;;;;;;111.88;53.25;;;;;;;;;;5027683;28;20053;-76
2023/12/06 00:58:08;;;;;;;107.07;52.08;;;;;;;;;;5028708;28;20032;-76
2023/12/06 01:00:34;;;;;;;111.78;52.67;;;;;;;;;;5026807;28;20521;-76
2023/12/06 01:03:00;;;;;;;110.10;50.22;;;;;;;;;;5028973;28;20120;-75
2023/12/06 01:05:26;;;;;;;102.40;50.28;;;;;;;;;;5011134;28;20128;-76
2023/12/06 01:07:52;;;;;;;98.75;49.08;;;;;;;;;;5025402;28;20068;-76
2023/12/06 01:10:18;;;;;;;102.07;50.30;;;;;;;;;;5027439;28;20025;-75
2023/12/06 01:12:44;;;;;;;97.70;49.55;;;;;;;;;;5027666;28;20044;-76
2023/12/06 01:15:10;;;;;;;103.13;50.20;;;;;;;;;;5026807;28;20037;-75
2023/12/06 01:17:37;;;;;;;96.47;48.03;;;;;;;;;;5026937;28;20064;-76
2023/12/06 01:20:05;;;;;;;97.18;49.15;;;;;;;;;;5028138;28;20037;-76
2023/12/06 01:22:32;;;;;;;100.97;48.10;;;;;;;;;;5026505;28;20034;-76
2023/12/06 01:24:58;;;;;;;94.43;47.80;;;;;;;;;;5022259;28;20158;-76
2023/12/06 01:27:24;;;;;;;97.85;49.38;;;;;;;;;;5028231;28;20513;-77
2023/12/06 01:29:50;;;;;;;97.88;49.10;;;;;;;;;;5028776;28;20052;-75
2023/12/06 01:32:16;;;;;;;96.10;48.38;;;;;;;;;;5027671;28;20124;-76
2023/12/06 01:34:42;;;;;;;100.25;48.50;;;;;;;;;;5023304;28;20060;-76
2023/12/06 01:37:08;;;;;;;98.93;48.17;;;;;;;;;;5008696;28;20049;-74
2023/12/06 01:39:35;;;;;;;108.47;50.53;;;;;;;;;;5027217;28;20025;-76
2023/12/06 01:42:01;;;;;;;96.63;49.47;;;;;;;;;;5009856;28;20037;-75
2023/12/06 01:44:27;;;;;;;94.00;48.55;;;;;;;;;;5026914;28;20033;-75
2023/12/06 01:46:53;;;;;;;100.75;50.15;;;;;;;;;;5009127;28;20478;-76
2023/12/06 01:49:19;;;;;;;102.60;49.45;;;;;;;;;;5008536;28;20033;-76
2023/12/06 01:51:46;;;;;;;94.60;48.92;;;;;;;;;;5006513;28;20133;-76
2023/12/06 01:54:12;;;;;;;96.15;47.17;;;;;;;;;;5026351;28;20025;-76
2023/12/06 01:56:38;;;;;;;98.82;50.53;;;;;;;;;;5027344;28;20025;-76
2023/12/06 01:59:07;;;;;;;91.93;49.50;;;;;;;;;;5009269;28;20100;-75
2023/12/06 02:01:34;;;;;;;90.75;47.72;;;;;;;;;;5026005;28;20053;-75
2023/12/06 02:04:00;;;;;;;90.65;46.95;;;;;;;;;;5010136;28;20510;-75
2023/12/06 02:06:26;;;;;;;94.20;47.80;;;;;;;;;;5009442;28;20041;-76
2023/12/06 02:08:53;;;;;;;94.32;48.95;;;;;;;;;;5027494;28;20439;-76
2023/12/06 02:11:19;;;;;;;93.13;46.95;;;;;;;;;;5021299;28;20049;-75
2023/12/06 02:13:46;;;;;;;84.93;45.53;;;;;;;;;;5024743;28;20052;-76
2023/12/06 02:16:12;;;;;;;91.00;45.80;;;;;;;;;;5027540;28;20129;-76
2023/12/06 02:18:38;;;;;;;85.88;46.53;;;;;;;;;;5025367;28;20033;-76
2023/12/06 02:21:05;;;;;;;86.90;45.83;;;;;;;;;;5020687;28;20414;-75
2023/12/06 02:23:33;;;;;;;87.55;46.25;;;;;;;;;;5023863;28;20083;-76
2023/12/06 02:26:00;;;;;;;85.03;46.33;;;;;;;;;;5026778;28;20029;-75
2023/12/06 02:28:26;;;;;;;83.93;45.28;;;;;;;;;;5029557;28;20073;-76
2023/12/06 02:30:52;;;;;;;83.15;44.63;;;;;;;;;;5025145;28;20064;-75
2023/12/06 02:33:18;;;;;;;87.85;45.72;;;;;;;;;;5032378;28;20025;-77
2023/12/06 02:35:47;;;;;;;84.40;44.53;;;;;;;;;;5030931;28;20266;-76
2023/12/06 02:38:15;;;;;;;83.55;44.35;;;;;;;;;;5025639;28;20177;-75
2023/12/06 02:40:43;;;;;;;86.30;46.60;;;;;;;;;;5009266;28;20041;-77
2023/12/06 02:43:09;;;;;;;80.47;44.42;;;;;;;;;;5011441;28;20096;-76
2023/12/06 02:45:35;;;;;;;87.88;44.33;;;;;;;;;;5009545;28;20463;-75
2023/12/06 02:48:04;;;;;;;85.93;44.55;;;;;;;;;;5011515;28;20034;-76
2023/12/06 02:50:31;;;;;;;84.15;44.42;;;;;;;;;;5009967;28;20040;-76
2023/12/06 02:52:57;;;;;;;90.72;45.95;;;;;;;;;;5009829;28;20032;-76
2023/12/06 02:55:23;;;;;;;79.15;44.47;;;;;;;;;;5009745;28;20319;-75
2023/12/06 02:57:49;;;;;;;81.15;44.60;;;;;;;;;;4993548;28;20095;-76
2023/12/06 03:00:16;;;;;;;92.38;46.05;;;;;;;;;;5024343;28;20064;-76
2023/12/06 03:02:42;;;;;;;74.63;42.88;;;;;;;;;;5011214;28;20038;-76
2023/12/06 03:05:08;;;;;;;75.43;42.17;;;;;;;;;;5010836;28;20038;-77
2023/12/06 03:07:34;;;;;;;87.22;44.13;;;;;;;;;;5010316;28;20034;-77
2023/12/06 03:10:00;;;;;;;81.90;43.08;;;;;;;;;;5024590;28;20030;-77
2023/12/06 03:12:27;;;;;;;81.75;44.20;;;;;;;;;;5008940;28;20032;-77
2023/12/06 03:14:53;;;;;;;83.82;44.88;;;;;;;;;;5011466;28;20426;-76
2023/12/06 03:17:19;;;;;;;82.30;44.28;;;;;;;;;;5009571;28;20030;-77
2023/12/06 03:19:45;;;;;;;77.18;44.92;;;;;;;;;;5010708;28;20043;-78
2023/12/06 03:22:11;;;;;;;76.00;43.65;;;;;;;;;;5010864;28;20073;-76
2023/12/06 03:24:37;;;;;;;84.05;45.33;;;;;;;;;;5010286;28;20048;-76
2023/12/06 03:27:03;;;;;;;82.03;44.25;;;;;;;;;;5010281;28;20046;-77
2023/12/06 03:29:30;;;;;;;80.57;43.92;;;;;;;;;;5009987;28;20084;-76
2023/12/06 03:31:56;;;;;;;86.05;45.15;;;;;;;;;;5009046;28;20060;-75
2023/12/06 03:34:22;;;;;;;83.80;45.00;;;;;;;;;;5011407;28;20014;-75
2023/12/06 03:36:48;;;;;;;76.20;43.33;;;;;;;;;;5013302;28;20128;-76
2023/12/06 03:39:16;;;;;;;85.03;46.30;;;;;;;;;;5031641;28;20048;-75
2023/12/06 03:41:42;;;;;;;83.07;45.60;;;;;;;;;;5030191;28;20025;-75
2023/12/06 03:44:09;;;;;;;87.57;44.35;;;;;;;;;;5030307;28;20098;-76
2023/12/06 03:46:35;;;;;;;81.30;43.00;;;;;;;;;;5008775;28;20029;-77
2023/12/06 03:49:01;;;;;;;83.03;44.95;;;;;;;;;;5030306;28;20072;-77
2023/12/06 03:51:28;;;;;;;86.45;45.63;;;;;;;;;;5023092;28;20029;-76
2023/12/06 03:53:55;;;;;;;90.22;47.42;;;;;;;;;;5029710;28;20083;-76
2023/12/06 03:56:22;;;;;;;80.00;43.83;;;;;;;;;;5028766;28;20030;-76
2023/12/06 03:58:48;;;;;;;80.90;44.15;;;;;;;;;;5011035;28;20041;-77
2023/12/06 04:01:14;;;;;;;82.32;45.92;;;;;;;;;;5025019;28;20986;-76
2023/12/06 04:03:41;;;;;;;86.57;45.40;;;;;;;;;;5028629;28;20045;-76
2023/12/06 04:06:07;;;;;;;88.35;45.40;;;;;;;;;;5011418;28;20033;-77
2023/12/06 04:08:33;;;;;;;86.40;46.33;;;;;;;;;;5011571;28;20167;-79
2023/12/06 04:10:59;;;;;;;91.20;46.45;;;;;;;;;;5009067;28;20520;-76
2023/12/06 04:13:26;;;;;;;86.47;44.33;;;;;;;;;;5022456;28;20030;-76
2023/12/06 04:15:52;;;;;;;84.55;45.40;;;;;;;;;;5010717;28;20053;-76
2023/12/06 04:18:18;;;;;;;86.13;45.50;;;;;;;;;;5011448;28;20025;-76
2023/12/06 04:20:44;;;;;;;87.22;47.03;;;;;;;;;;5026545;28;20030;-77
2023/12/06 04:23:11;;;;;;;87.50;45.17;;;;;;;;;;4997962;28;20405;-77
2023/12/06 04:25:37;;;;;;;85.75;44.95;;;;;;;;;;5011642;28;20048;-76
2023/12/06 04:28:04;;;;;;;81.63;45.25;;;;;;;;;;5029430;28;20048;-76
2023/12/06 04:30:30;;;;;;;81.90;44.83;;;;;;;;;;5025362;28;20060;-77
2023/12/06 04:32:57;;;;;;;85.78;46.80;;;;;;;;;;5028314;28;20052;-76
2023/12/06 04:35:23;;;;;;;82.75;44.22;;;;;;;;;;5029542;28;20143;-76
2023/12/06 04:37:49;;;;;;;77.05;42.60;;;;;;;;;;5011620;28;20045;-76
2023/12/06 04:40:15;;;;;;;79.90;44.35;;;;;;;;;;5028497;28;20076;-76
2023/12/06 04:42:41;;;;;;;74.35;41.75;;;;;;;;;;5030458;28;20061;-77
2023/12/06 04:45:07;;;;;;;78.55;43.10;;;;;;;;;;5030011;28;20125;-76
2023/12/06 04:47:34;;;;;;;80.28;42.22;;;;;;;;;;5026387;28;20034;-77
2023/12/06 04:50:00;;;;;;;80.00;42.20;;;;;;;;;;5027917;28;20121;-76
2023/12/06 04:52:26;;;;;;;74.47;40.92;;;;;;;;;;5027473;28;20041;-75
2023/12/06 04:54:52;;;;;;;77.72;43.38;;;;;;;;;;5028162;28;20483;-76
2023/12/06 04:57:19;;;;;;;75.68;42.08;;;;;;;;;;5027539;28;20029;-76
2023/12/06 04:59:45;;;;;;;74.60;41.10;;;;;;;;;;5028904;28;20116;-76
2023/12/06 05:02:11;;;;;;;76.45;40.75;;;;;;;;;;5009600;28;20030;-75
2023/12/06 05:04:37;;;;;;;69.72;39.72;;;;;;;;;;5028780;28;20029;-76
2023/12/06 05:07:03;;;;;;;75.38;40.90;;;;;;;;;;5027802;28;20458;-77
2023/12/06 05:09:30;;;;;;;73.10;40.65;;;;;;;;;;5027693;28;20125;-76
2023/12/06 05:11:56;;;;;;;73.97;40.80;;;;;;;;;;5009088;28;20022;-78
2023/12/06 05:14:22;;;;;;;76.57;41.40;;;;;;;;;;5028258;28;20025;-77
2023/12/06 05:16:48;;;;;;;72.88;40.42;;;;;;;;;;5010197;28;20036;-76
2023/12/06 05:19:15;;;;;;;79.15;41.63;;;;;;;;;;5028671;28;20090;-77
2023/12/06 05:21:41;;;;;;;72.38;40.25;;;;;;;;;;5012170;28;20060;-76
2023/12/06 05:24:07;;;;;;;66.93;38.85;;;;;;;;;;5026153;28;20174;-77
2023/12/06 05:26:33;;;;;;;75.45;40.40;;;;;;;;;;5010362;28;20029;-78
2023/12/06 05:28:59;;;;;;;70.15;40.38;;;;;;;;;;5027778;28;20033;-77
2023/12/06 05:31:26;;;;;;;74.50;39.85;;;;;;;;;;5008930;28;20064;-77
2023/12/06 05:33:52;;;;;;;78.18;42.10;;;;;;;;;;5027431;28;20680;-76
2023/12/06 05:36:18;;;;;;;73.60;40.70;;;;;;;;;;5027555;28;20126;-76
2023/12/06 05:38:44;;;;;;;72.97;40.70;;;;;;;;;;5016041;28;20090;-76
2023/12/06 05:41:10;;;;;;;77.00;41.95;;;;;;;;;;5027341;28;20695;-78
2023/12/06 05:43:37;;;;;;;81.47;40.58;;;;;;;;;;5027815;28;20029;-76
2023/12/06 05:46:03;;;;;;;75.53;39.75;;;;;;;;;;5024705;28;20035;-77
2023/12/06 05:48:29;;;;;;;71.85;38.95;;;;;;;;;;5010084;28;20383;-77
2023/12/06 05:50:56;;;;;;;75.85;38.55;;;;;;;;;;5026190;28;20372;-77
2023/12/06 05:53:23;;;;;;;82.43;39.85;;;;;;;;;;5022362;28;20117;-76
2023/12/06 05:55:49;;;;;;;73.07;40.05;;;;;;;;;;5008887;28;20449;-77
2023/12/06 05:58:15;;;;;;;77.65;39.58;;;;;;;;;;5010325;28;20320;-77
2023/12/06 06:00:41;;;;;;;74.53;40.67;;;;;;;;;;5028934;28;20045;-76
2023/12/06 06:03:07;;;;;;;74.35;38.33;;;;;;;;;;5028109;28;20038;-75
2023/12/06 06:05:33;;;;;;;76.88;39.55;;;;;;;;;;5027241;28;20076;-76
2023/12/06 06:08:00;;;;;;;81.30;41.03;;;;;;;;;;5010472;28;20037;-75
2023/12/06 06:10:26;;;;;;;81.00;39.80;;;;;;;;;;5026338;28;20034;-75
2023/12/06 06:12:52;;;;;;;72.88;39.10;;;;;;;;;;5023716;28;20037;-76
2023/12/06 06:15:19;;;;;;;73.72;39.63;;;;;;;;;;5027726;28;20021;-76
2023/12/06 06:17:46;;;;;;;77.35;37.70;;;;;;;;;;5009575;28;20538;-77
2023/12/06 06:20:12;;;;;;;66.85;38.60;;;;;;;;;;5001759;28;20034;-77
2023/12/06 06:22:41;;;;;;;72.38;39.75;;;;;;;;;;5023726;28;20125;-77
2023/12/06 06:25:09;;;;;;;75.80;38.67;;;;;;;;;;5028491;28;20075;-78
2023/12/06 06:27:35;;;;;;;67.55;37.42;;;;;;;;;;4993744;28;20037;-78
2023/12/06 06:30:01;;;;;;;64.22;36.63;;;;;;;;;;5026511;28;20041;-76
2023/12/06 06:32:27;;;;;;;71.80;37.42;;;;;;;;;;5007655;28;20082;-77
2023/12/06 06:34:53;;;;;;;74.10;37.38;;;;;;;;;;4999738;28;20037;-75
2023/12/06 06:37:20;;;;;;;68.85;35.47;;;;;;;;;;5024404;28;20081;-77
2023/12/06 06:39:46;;;;;;;70.20;39.13;;;;;;;;;;5009576;28;20029;-76
2023/12/06 06:42:12;;;;;;;64.88;36.22;;;;;;;;;;5025730;28;20076;-75
2023/12/06 06:44:40;;;;;;;65.97;36.30;;;;;;;;;;5026725;28;20028;-77
2023/12/06 06:47:07;;;;;;;60.28;33.05;;;;;;;;;;5023699;28;20038;-76
2023/12/06 06:49:33;;;;;;;67.32;33.33;;;;;;;;;;5025166;28;20429;-76
2023/12/06 06:52:00;;;;;;;57.50;32.72;;;;;;;;;;5013549;28;20061;-77
2023/12/06 06:54:26;;;;;;;58.30;30.60;;;;;;;;;;5025833;28;20160;-77
2023/12/06 06:56:52;;;;;;;59.90;32.38;;;;;;;;;;5026484;28;20068;-76
2023/12/06 06:59:18;;;;;;;52.38;29.88;;;;;;;;;;5008995;28;20038;-77
2023/12/06 07:01:44;;;;;;;54.45;31.00;;;;;;;;;;5026738;28;20040;-77
2023/12/06 07:04:12;;;;;;;53.13;30.48;;;;;;;;;;5025956;28;20038;-77
2023/12/06 07:06:39;;;;;;;50.65;28.90;;;;;;;;;;5010179;28;20029;-77
2023/12/06 07:09:05;;;;;;;48.60;29.23;;;;;;;;;;5026922;28;20056;-76
2023/12/06 07:11:33;;;;;;;58.15;27.95;;;;;;;;;;5027701;28;20038;-76
2023/12/06 07:13:59;;;;;;;50.15;27.73;;;;;;;;;;5012956;28;20033;-76
2023/12/06 07:16:25;;;;;;;48.13;27.52;;;;;;;;;;5029250;28;20029;-77
2023/12/06 07:18:52;;;;;;;51.70;28.90;;;;;;;;;;5013254;28;20032;-79
2023/12/06 07:21:18;;;;;;;44.90;26.13;;;;;;;;;;5029837;28;20132;-77
2023/12/06 07:23:45;;;;;;;47.88;26.08;;;;;;;;;;5012341;28;20034;-77
2023/12/06 07:26:11;;;;;;;43.92;25.95;;;;;;;;;;5031152;28;20280;-77
2023/12/06 07:28:37;;;;;;;44.78;25.33;;;;;;;;;;5030660;28;20033;-77
2023/12/06 07:31:03;;;;;;;45.78;25.13;;;;;;;;;;5012626;28;20083;-77
2023/12/06 07:33:31;;;;;;;48.55;25.60;;;;;;;;;;5030100;28;20033;-77
2023/12/06 07:35:57;;;;;;;46.53;25.73;;;;;;;;;;5016116;28;20125;-76
2023/12/06 07:38:25;;;;;;;44.92;25.80;;;;;;;;;;4991076;28;20050;-76
2023/12/06 07:40:51;;;;;;;45.85;24.73;;;;;;;;;;4992804;28;20026;-76
2023/12/06 07:43:19;;;;;;;45.45;26.00;;;;;;;;;;5000787;28;20046;-75
2023/12/06 07:45:45;;;;;;;45.20;25.10;;;;;;;;;;5001704;28;20056;-75
2023/12/06 07:48:11;;;;;;;46.80;24.83;;;;;;;;;;5008116;28;20189;-76
2023/12/06 07:50:37;;;;;;;47.42;25.42;;;;;;;;;;5004622;28;20486;-74
2023/12/06 07:53:04;;;;;;;53.15;25.23;;;;;;;;;;5005099;28;20125;-75
2023/12/06 07:55:30;;;;;;;43.72;24.88;;;;;;;;;;5006024;28;20026;-75
2023/12/06 07:57:56;;;;;;;43.00;23.92;;;;;;;;;;5008313;28;20045;-75
2023/12/06 08:00:22;;;;;;;34.35;22.58;;;;;;;;;;5018380;28;20026;-75
2023/12/06 08:02:48;;;;;;;40.83;23.08;;;;;;;;;;5008211;28;20048;-75
2023/12/06 08:05:16;;;;;;;42.30;22.92;;;;;;;;;;5006522;28;20034;-75
2023/12/06 08:07:43;;;;;;;42.75;22.70;;;;;;;;;;5004608;28;20042;-75
2023/12/06 08:10:19;;;;;;;42.95;22.45;;;;;;;;;;4988672;28;20092;-75
2023/12/06 08:12:45;;;;;;;44.08;21.77;;;;;;;;;;4993214;28;20038;-75
2023/12/06 08:15:12;;;;;;;37.63;22.10;;;;;;;;;;5002880;28;20302;-75
2023/12/06 08:17:38;;;;;;;39.72;23.00;;;;;;;;;;5002100;28;20034;-75
2023/12/06 08:20:10;;;;;;;37.90;21.00;;;;;;;;;;5006682;28;20430;-75
2023/12/06 08:22:37;;;;;;;33.92;20.30;;;;;;;;;;4998883;28;20026;-75
2023/12/06 08:25:03;;;;;;;36.10;21.67;;;;;;;;;;4994844;28;20038;-75
2023/12/06 08:27:29;;;;;;;42.55;21.75;;;;;;;;;;4998855;28;20446;-74
2023/12/06 08:29:56;;;;;;;33.22;19.58;;;;;;;;;;5006584;28;20084;-73
2023/12/06 08:32:22;;;;;;;40.63;20.27;;;;;;;;;;5001156;28;20506;-75
2023/12/06 08:34:49;;;;;;;42.03;20.40;;;;;;;;;;4997860;28;20451;-74
2023/12/06 08:37:18;;;;;;;36.05;20.60;;;;;;;;;;5002460;28;20284;-75
2023/12/06 08:39:45;;;;;;;33.55;19.58;;;;;;;;;;4996907;28;20060;-75
2023/12/06 08:42:14;;;;;;;43.63;20.02;;;;;;;;;;4996976;28;20033;-76
2023/12/06 08:44:41;;;;;;;36.53;18.48;;;;;;;;;;5003036;28;20278;-75
2023/12/06 08:47:07;;;;;;;36.15;19.38;;;;;;;;;;5011410;28;20514;-75
2023/12/06 08:49:34;;;;;;;36.72;19.08;;;;;;;;;;4995909;28;20061;-75
2023/12/06 08:52:01;;;;;;;37.78;19.42;;;;;;;;;;4998759;28;20522;-75
2023/12/06 08:54:27;;;;;;;37.67;20.35;;;;;;;;;;4999907;28;20095;-75
2023/12/06 08:56:53;;;;;;;36.47;19.48;;;;;;;;;;5007544;28;20061;-76
2023/12/06 08:59:19;;;;;;;34.63;20.17;;;;;;;;;;4998322;28;20037;-76
2023/12/06 09:01:45;;;;;;;36.33;21.02;;;;;;;;;;5005576;28;20037;-75
2023/12/06 09:04:11;;;;;;;38.53;20.48;;;;;;;;;;5003650;28;20033;-76
2023/12/06 09:06:37;;;;;;;37.28;20.48;;;;;;;;;;5022027;28;20037;-75
2023/12/06 09:09:05;;;;;;;37.03;21.27;;;;;;;;;;5000107;28;20136;-76
2023/12/06 09:11:31;;;;;;;35.38;20.30;;;;;;;;;;4994950;28;20081;-76
2023/12/06 09:13:57;;;;;;;36.45;21.15;;;;;;;;;;5008692;28;20026;-76
2023/12/06 09:16:24;;;;;;;34.05;20.00;;;;;;;;;;5007735;28;20064;-75
2023/12/06 09:18:53;;;;;;;37.47;20.55;;;;;;;;;;5007915;28;20030;-76
2023/12/06 09:21:19;;;;;;;34.63;19.13;;;;;;;;;;5006177;28;20034;-75
2023/12/06 09:23:45;;;;;;;30.90;18.08;;;;;;;;;;5003324;28;20034;-76
2023/12/06 09:26:12;;;;;;;31.25;18.75;;;;;;;;;;5008613;28;20026;-75
2023/12/06 09:28:38;;;;;;;28.45;17.83;;;;;;;;;;5007889;28;20119;-75
2023/12/06 09:31:05;;;;;;;27.60;17.10;;;;;;;;;;5022347;28;20734;-76
2023/12/06 09:33:31;;;;;;;30.98;17.80;;;;;;;;;;5006659;28;20497;-75
2023/12/06 09:35:57;;;;;;;32.40;17.83;;;;;;;;;;5008252;28;20041;-75
2023/12/06 09:38:23;;;;;;;35.33;17.05;;;;;;;;;;5020840;28;20053;-75
2023/12/06 09:40:50;;;;;;;33.95;18.60;;;;;;;;;;5013869;28;20125;-75
2023/12/06 09:43:18;;;;;;;30.35;17.80;;;;;;;;;;5006043;28;20030;-75
2023/12/06 09:45:45;;;;;;;28.10;16.42;;;;;;;;;;5022696;28;20561;-74
2023/12/06 09:48:11;;;;;;;31.33;17.75;;;;;;;;;;5022902;28;20093;-76
2023/12/06 09:50:38;;;;;;;34.03;18.15;;;;;;;;;;5005210;28;20052;-75
2023/12/06 09:53:04;;;;;;;32.17;17.70;;;;;;;;;;4988281;28;20041;-75
2023/12/06 09:55:35;;;;;;;31.25;17.85;;;;;;;;;;4987568;28;20084;-74
2023/12/06 09:58:01;;;;;;;33.35;18.08;;;;;;;;;;4988709;28;20030;-76
2023/12/06 10:00:27;;;;;;;31.05;18.38;;;;;;;;;;4988306;28;20029;-74
2023/12/06 10:02:54;;;;;;;31.15;17.88;;;;;;;;;;5006812;28;20044;-74
2023/12/06 10:05:21;;;;;;;34.63;19.55;;;;;;;;;;5006732;28;20030;-75
2023/12/06 10:07:47;;;;;;;31.98;18.77;;;;;;;;;;5007176;28;20129;-75
2023/12/06 10:10:23;;;;;;;34.33;18.02;;;;;;;;;;5023187;28;20467;-75
2023/12/06 10:12:52;;;;;;;32.63;17.73;;;;;;;;;;5004730;28;20057;-75
2023/12/06 10:15:20;;;;;;;27.52;17.10;;;;;;;;;;5006677;28;20030;-75
2023/12/06 10:17:46;;;;;;;31.63;15.13;;;;;;;;;;5006912;28;20594;-75
2023/12/06 10:20:13;;;;;;;28.65;15.02;;;;;;;;;;5009065;28;20099;-75
2023/12/06 10:22:40;;;;;;;25.35;16.75;;;;;;;;;;5003154;28;20149;-75
2023/12/06 10:25:08;;;;;;;29.00;16.80;;;;;;;;;;5015260;28;20062;-74
2023/12/06 10:27:36;;;;;;;28.27;16.00;;;;;;;;;;5002102;28;20030;-75
2023/12/06 10:30:06;;;;;;;30.75;16.80;;;;;;;;;;5007261;28;20042;-75
2023/12/06 10:32:33;;;;;;;35.87;16.77;;;;;;;;;;5003485;28;20041;-75
2023/12/06 10:35:06;;;;;;;26.92;16.13;;;;;;;;;;5007295;28;20042;-75
2023/12/06 10:37:33;;;;;;;33.42;16.27;;;;;;;;;;5006204;28;20046;-74
2023/12/06 10:40:00;;;;;;;27.65;14.65;;;;;;;;;;5000482;28;20454;-75
2023/12/06 10:42:32;;;;;;;26.02;14.15;;;;;;;;;;4987646;28;20038;-74
2023/12/06 10:45:00;;;;;;;24.73;14.65;;;;;;;;;;4986509;28;20054;-75
2023/12/06 10:47:26;;;;;;;25.52;13.57;;;;;;;;;;4990956;28;20034;-75
2023/12/06 10:49:54;;;;;;;23.65;13.00;;;;;;;;;;4990616;28;20092;-75
2023/12/06 10:52:21;;;;;;;21.35;13.18;;;;;;;;;;4989659;28;20030;-75
2023/12/06 10:54:47;;;;;;;24.77;13.27;;;;;;;;;;4992173;28;20030;-75
2023/12/06 10:57:14;;;;;;;23.48;13.43;;;;;;;;;;4991262;28;20041;-76
2023/12/06 10:59:43;;;;;;;25.65;13.88;;;;;;;;;;4990382;28;20035;-75
2023/12/06 11:02:10;;;;;;;25.92;14.65;;;;;;;;;;4990475;28;20039;-76
2023/12/06 11:04:39;;;;;;;27.60;14.27;;;;;;;;;;4991430;28;20345;-76
2023/12/06 11:07:12;;;;;;;24.10;13.55;;;;;;;;;;4991231;28;20039;-75
2023/12/06 11:09:38;;;;;;;31.05;13.85;;;;;;;;;;4991254;28;20026;-75
2023/12/06 11:12:17;;;;;;;24.15;14.10;;;;;;;;;;4991571;28;20431;-75
2023/12/06 11:15:02;;;;;;;28.73;14.57;;;;;;;;;;4988365;28;20057;-75
2023/12/06 11:17:42;;;;;;;23.90;15.25;;;;;;;;;;4985765;28;20487;-75
2023/12/06 11:20:09;;;;;;;24.83;15.27;;;;;;;;;;4991481;28;20173;-76
2023/12/06 11:22:36;;;;;;;23.50;15.60;;;;;;;;;;4991334;28;20480;-75
2023/12/06 11:25:03;;;;;;;26.15;15.40;;;;;;;;;;5011575;28;20030;-76
2023/12/06 11:27:29;;;;;;;27.40;14.45;;;;;;;;;;5026489;28;20056;-76
2023/12/06 11:29:56;;;;;;;24.10;13.55;;;;;;;;;;4995461;28;20027;-75
2023/12/06 11:32:23;;;;;;;22.13;13.77;;;;;;;;;;4991218;28;20125;-77
2023/12/06 11:34:56;;;;;;;24.50;14.00;;;;;;;;;;5004277;28;20101;-76
2023/12/06 11:37:22;;;;;;;28.83;13.73;;;;;;;;;;4997725;28;20050;-76
2023/12/06 11:40:07;;;;;;;25.35;14.10;;;;;;;;;;5030811;28;20037;-75
2023/12/06 11:42:37;;;;;;;21.20;13.70;;;;;;;;;;5029849;28;20037;-75
2023/12/06 11:45:03;;;;;;;27.03;12.07;;;;;;;;;;4993521;28;20178;-78
2023/12/06 11:47:34;;;;;;;19.75;11.52;;;;;;;;;;5008973;28;20042;-76
2023/12/06 11:50:01;;;;;;;20.50;12.52;;;;;;;;;;5020199;28;20742;-75
2023/12/06 11:52:27;;;;;;;28.25;12.13;;;;;;;;;;5030345;28;20064;-77
2023/12/06 11:54:54;;;;;;;20.38;12.63;;;;;;;;;;5019179;28;20326;-75
2023/12/06 11:57:20;;;;;;;22.42;11.98;;;;;;;;;;5009594;28;20054;-75
2023/12/06 11:59:47;;;;;;;22.67;10.80;;;;;;;;;;5012501;28;20143;-76
2023/12/06 12:02:13;;;;;;;22.33;12.15;;;;;;;;;;5012854;28;20391;-75
2023/12/06 12:04:40;;;;;;;17.10;9.82;;;;;;;;;;5028225;28;20037;-75
2023/12/06 12:07:06;;;;;;;20.15;10.98;;;;;;;;;;5030233;28;20037;-75
2023/12/06 12:09:33;;;;;;;16.17;10.50;;;;;;;;;;5028148;28;20037;-75
2023/12/06 12:11:59;;;;;;;17.77;10.98;;;;;;;;;;5029341;28;20099;-75
2023/12/06 12:14:33;;;;;;;16.52;11.23;;;;;;;;;;5011210;28;20033;-75
2023/12/06 12:17:00;;;;;;;24.40;12.50;;;;;;;;;;5029862;28;20128;-75
2023/12/06 12:19:27;;;;;;;27.50;13.18;;;;;;;;;;5029095;28;20026;-76
2023/12/06 12:22:01;;;;;;;18.65;10.70;;;;;;;;;;5028807;28;20048;-76
2023/12/06 12:24:27;;;;;;;19.73;10.75;;;;;;;;;;5027418;28;20037;-75
2023/12/06 12:26:53;;;;;;;17.63;9.85;;;;;;;;;;5017477;28;20034;-76
2023/12/06 12:29:19;;;;;;;15.55;9.20;;;;;;;;;;5018807;28;20099;-76
2023/12/06 12:31:46;;;;;;;21.77;10.07;;;;;;;;;;5026216;28;20120;-76
2023/12/06 12:34:13;;;;;;;17.52;8.77;;;;;;;;;;5010228;28;20433;-76
2023/12/06 12:36:40;;;;;;;15.43;8.82;;;;;;;;;;5029070;28;20377;-77
2023/12/06 12:39:08;;;;;;;15.95;8.88;;;;;;;;;;5028867;28;20359;-76
2023/12/06 12:41:35;;;;;;;14.90;8.98;;;;;;;;;;5029072;28;20041;-76
2023/12/06 12:44:01;;;;;;;16.90;8.90;;;;;;;;;;5009844;28;20251;-76
2023/12/06 12:46:27;;;;;;;16.27;9.27;;;;;;;;;;5011967;28;20030;-76
2023/12/06 12:48:53;;;;;;;16.23;9.57;;;;;;;;;;5030034;28;20107;-76
2023/12/06 12:51:20;;;;;;;16.25;9.45;;;;;;;;;;5011762;28;20037;-75
2023/12/06 12:53:46;;;;;;;18.67;9.30;;;;;;;;;;5010436;28;20092;-76
2023/12/06 12:56:13;;;;;;;21.77;9.95;;;;;;;;;;5008863;28;20030;-76
2023/12/06 12:58:39;;;;;;;19.92;9.90;;;;;;;;;;5014804;28;20423;-76
2023/12/06 13:01:07;;;;;;;16.50;10.65;;;;;;;;;;5029334;28;20045;-76
2023/12/06 13:03:33;;;;;;;22.38;10.80;;;;;;;;;;5010640;28;20029;-75
2023/12/06 13:06:03;;;;;;;20.95;10.75;;;;;;;;;;5028542;28;20140;-75
2023/12/06 13:08:34;;;;;;;23.48;11.30;;;;;;;;;;5028521;28;20034;-77
2023/12/06 13:11:00;;;;;;;24.52;11.40;;;;;;;;;;5029519;28;20057;-76
2023/12/06 13:13:27;;;;;;;23.42;11.77;;;;;;;;;;5009898;28;20506;-76
2023/12/06 13:15:54;;;;;;;22.80;12.90;;;;;;;;;;5010018;28;20099;-75
2023/12/06 13:18:20;;;;;;;24.10;12.32;;;;;;;;;;5028824;28;20022;-76
2023/12/06 13:20:46;;;;;;;24.50;11.65;;;;;;;;;;5029222;28;20510;-76
2023/12/06 13:23:12;;;;;;;23.88;12.40;;;;;;;;;;5027695;28;20322;-75
2023/12/06 13:25:39;;;;;;;19.02;12.90;;;;;;;;;;5027127;28;20044;-75
2023/12/06 13:28:05;;;;;;;27.38;12.68;;;;;;;;;;5027368;28;20028;-77
2023/12/06 13:30:31;;;;;;;18.92;12.63;;;;;;;;;;5027429;28;20060;-77
2023/12/06 13:32:57;;;;;;;17.17;11.25;;;;;;;;;;5021393;28;20046;-76
2023/12/06 13:35:23;;;;;;;18.95;10.77;;;;;;;;;;5028032;28;20356;-76
2023/12/06 13:37:51;;;;;;;19.40;11.32;;;;;;;;;;5025152;28;20095;-75
2023/12/06 13:40:17;;;;;;;17.85;11.15;;;;;;;;;;5010372;28;20030;-75
2023/12/06 13:42:43;;;;;;;19.45;10.80;;;;;;;;;;5027899;28;20052;-75
2023/12/06 13:45:09;;;;;;;15.48;9.63;;;;;;;;;;5026604;28;20467;-75
2023/12/06 13:47:35;;;;;;;16.55;9.63;;;;;;;;;;5027887;28;20055;-76
2023/12/06 13:50:02;;;;;;;12.50;8.18;;;;;;;;;;4992579;28;20537;-76
2023/12/06 13:52:28;;;;;;;12.90;7.45;;;;;;;;;;5027430;28;20042;-76
2023/12/06 13:54:54;;;;;;;13.10;7.75;;;;;;;;;;5017496;28;20399;-76
2023/12/06 13:57:20;;;;;;;12.68;7.18;;;;;;;;;;5007290;28;20061;-76
2023/12/06 13:59:46;;;;;;;15.82;7.13;;;;;;;;;;5006635;28;20398;-75
2023/12/06 14:02:13;;;;;;;10.90;7.60;;;;;;;;;;5022387;28;20033;-76
2023/12/06 14:04:40;;;;;;;12.07;6.50;;;;;;;;;;5009300;28;20041;-77
2023/12/06 14:07:07;;;;;;;11.02;5.88;;;;;;;;;;5009986;28;20479;-76
2023/12/06 14:09:34;;;;;;;9.48;5.78;;;;;;;;;;5027530;28;20055;-74
2023/12/06 14:12:01;;;;;;;12.25;5.97;;;;;;;;;;5026515;28;20045;-75
2023/12/06 14:14:27;;;;;;;9.48;5.50;;;;;;;;;;5026498;28;20061;-77